Monroe City, Texas
Current Conditions -  °F | °C
As of 12:35 PM on Thursday 30 Oct 2014 (Local Time) from KBMT Reporting Station
Clear Clear  
Wind Chill: 71°   Ceiling: Unl
Heat Index: 71°   Visibility: 10mi
Dew Point: 48°   Wind: 0mph
Humidity: 43%   Direction: NA
Pressure: 30.13"   Gusts: NA
Location:  29.7107°N, 94.5434°W
Report Text: KBMT 301735Z AUTO 00000KT 10SM CLR 22/09 A3013 RMK AO2 T02190089
Loading
Personal Weather Stations






























Interactive Weather Map
Tropical Storm Tracking
New forecast layout! Learn more

10-Day Weather Forecast

Advertisements
Track Severe Weather on mobile